Time;durP1;ratioP1;P1;durP2;ratioP2;P2;SDS_P1;SDS_P2;PMS_P1;PMS_P2;Temp;Humidity;BMP_temperature;BMP_pressure;BME280_temperature;BME280_humidity;BME280_pressure;Samples;Min_cycle;Max_cycle;Signal;HPM_P1;HPM_P2
2021/11/10 00:00:00;;;;;;;21.60;10.38;;;9.60;99.90;;;;;;5133680;27;20063;-72
2021/11/10 00:02:26;;;;;;;22.70;10.60;;;9.60;99.90;;;;;;5132845;27;20043;-72
2021/11/10 00:04:52;;;;;;;20.20;10.15;;;9.60;99.90;;;;;;5097556;28;20044;-72
2021/11/10 00:07:17;;;;;;;22.23;11.63;;;9.60;99.90;;;;;;5111822;27;20099;-72
2021/11/10 00:09:43;;;;;;;26.13;10.93;;;9.60;99.90;;;;;;5093813;28;20090;-72
2021/11/10 00:12:09;;;;;;;25.40;10.80;;;9.50;99.90;;;;;;5112461;28;20043;-72
2021/11/10 00:14:38;;;;;;;26.83;11.18;;;9.60;99.90;;;;;;5112001;28;20040;-72
2021/11/10 00:17:04;;;;;;;22.58;10.93;;;9.60;99.90;;;;;;5121449;27;20503;-72
2021/11/10 00:19:29;;;;;;;19.85;10.85;;;9.60;99.90;;;;;;5132463;27;20134;-72
2021/11/10 00:21:55;;;;;;;25.02;10.88;;;9.50;99.90;;;;;;5133314;27;20082;-72
2021/11/10 00:24:21;;;;;;;18.85;10.73;;;9.50;99.90;;;;;;5132394;27;20043;-72
2021/11/10 00:26:47;;;;;;;22.92;10.70;;;9.50;99.90;;;;;;5132141;27;20902;-72
2021/11/10 00:29:13;;;;;;;22.98;10.18;;;9.50;99.90;;;;;;5132967;27;20039;-72
2021/11/10 00:31:39;;;;;;;17.55;10.93;;;9.50;99.90;;;;;;5132010;27;20045;-72
2021/11/10 00:34:05;;;;;;;26.63;10.88;;;9.50;99.90;;;;;;5114122;27;20042;-72
2021/11/10 00:36:31;;;;;;;18.40;9.88;;;9.50;99.90;;;;;;5132100;27;20078;-73
2021/11/10 00:38:57;;;;;;;20.65;10.52;;;9.50;99.90;;;;;;5130936;27;20043;-72
2021/11/10 00:41:24;;;;;;;23.55;10.85;;;9.50;99.90;;;;;;5097548;27;20103;-72
2021/11/10 00:43:50;;;;;;;21.65;11.07;;;9.40;99.90;;;;;;5096624;27;20051;-72
2021/11/10 00:46:16;;;;;;;23.33;10.90;;;9.40;99.90;;;;;;5148374;27;20243;-72
2021/11/10 00:48:41;;;;;;;17.65;10.48;;;9.40;99.90;;;;;;5131526;27;20123;-72
2021/11/10 00:51:08;;;;;;;21.13;10.82;;;9.40;99.90;;;;;;5132114;27;20043;-72
2021/11/10 00:53:34;;;;;;;23.63;10.32;;;9.40;99.90;;;;;;5078485;27;20092;-72
2021/11/10 00:56:00;;;;;;;22.85;11.05;;;9.40;99.90;;;;;;5132155;27;20122;-71
2021/11/10 00:58:26;;;;;;;24.20;11.45;;;9.40;99.90;;;;;;5131764;27;20122;-72
2021/11/10 01:00:51;;;;;;;24.13;10.95;;;9.40;99.90;;;;;;5123439;27;20150;-72
2021/11/10 01:03:19;;;;;;;23.27;11.23;;;9.40;99.90;;;;;;5095076;27;20546;-71
2021/11/10 01:05:45;;;;;;;22.15;10.73;;;9.40;99.90;;;;;;5127596;27;20056;-72
2021/11/10 01:08:11;;;;;;;22.25;11.88;;;9.40;99.90;;;;;;5122411;27;20100;-71
2021/11/10 01:10:38;;;;;;;23.15;11.27;;;9.40;99.90;;;;;;5127688;27;20112;-72
2021/11/10 01:13:05;;;;;;;24.02;10.82;;;9.40;99.90;;;;;;5131492;27;20047;-72
2021/11/10 01:15:31;;;;;;;25.40;11.20;;;9.40;99.90;;;;;;5113222;27;20095;-72
2021/11/10 01:17:57;;;;;;;26.25;11.77;;;9.40;99.90;;;;;;5131807;27;20103;-71
2021/11/10 01:20:23;;;;;;;25.80;12.07;;;9.40;99.90;;;;;;5131504;27;20035;-72
2021/11/10 01:22:49;;;;;;;22.50;12.18;;;9.40;99.90;;;;;;5112956;27;20043;-72
2021/11/10 01:25:15;;;;;;;25.00;11.90;;;9.40;99.90;;;;;;5131658;27;20375;-71
2021/11/10 01:27:41;;;;;;;21.60;12.10;;;9.30;99.90;;;;;;5128848;27;20134;-72
2021/11/10 01:30:10;;;;;;;28.63;13.13;;;9.40;99.90;;;;;;5112976;27;20207;-72
2021/11/10 01:32:36;;;;;;;25.85;13.20;;;9.30;99.90;;;;;;5131557;27;20393;-72
2021/11/10 01:35:02;;;;;;;22.27;13.27;;;9.30;99.90;;;;;;5131231;27;20047;-71
2021/11/10 01:37:31;;;;;;;21.85;12.73;;;9.20;99.90;;;;;;5129247;27;20084;-71
2021/11/10 01:39:56;;;;;;;23.95;13.40;;;9.20;99.90;;;;;;5113122;27;20039;-71
2021/11/10 01:42:27;;;;;;;32.22;15.27;;;9.20;99.90;;;;;;5095925;27;20045;-71
2021/11/10 01:44:53;;;;;;;29.48;16.48;;;9.20;99.90;;;;;;5131326;27;20498;-71
2021/11/10 01:47:19;;;;;;;29.63;15.48;;;9.20;99.90;;;;;;5113464;27;20058;-71
2021/11/10 01:49:45;;;;;;;29.70;16.33;;;9.10;99.90;;;;;;5096313;27;20087;-71
2021/11/10 01:52:11;;;;;;;28.83;16.95;;;9.10;99.90;;;;;;5129624;27;20043;-72
2021/11/10 01:54:39;;;;;;;25.15;15.07;;;9.10;99.90;;;;;;5105225;27;20043;-71
2021/11/10 01:57:07;;;;;;;24.77;14.85;;;9.00;99.90;;;;;;5111299;27;20042;-71
2021/11/10 01:59:36;;;;;;;23.90;14.48;;;9.00;99.90;;;;;;5110911;27;20062;-71
2021/11/10 02:02:05;;;;;;;29.90;16.98;;;9.00;99.90;;;;;;5128818;27;20459;-71
2021/11/10 02:04:34;;;;;;;24.90;15.48;;;8.90;99.90;;;;;;5127921;27;20047;-71
2021/11/10 02:07:01;;;;;;;26.33;16.10;;;8.90;99.90;;;;;;5094414;27;20051;-71
2021/11/10 02:09:28;;;;;;;31.58;17.58;;;8.90;99.90;;;;;;5125868;27;20035;-71
2021/11/10 02:11:57;;;;;;;30.65;17.88;;;8.90;99.90;;;;;;5093960;27;20058;-71
2021/11/10 02:14:25;;;;;;;29.88;16.13;;;8.90;99.90;;;;;;5128675;27;20038;-71
2021/11/10 02:16:52;;;;;;;29.27;17.77;;;8.80;99.90;;;;;;5123720;27;20102;-72
2021/11/10 02:19:20;;;;;;;31.88;17.15;;;8.80;99.90;;;;;;5128428;27;20074;-71
2021/11/10 02:21:49;;;;;;;26.15;16.85;;;8.90;99.90;;;;;;5109503;27;20047;-71
2021/11/10 02:24:19;;;;;;;30.98;16.38;;;8.90;99.90;;;;;;5110139;27;20042;-71
2021/11/10 02:26:46;;;;;;;33.72;16.98;;;8.80;99.90;;;;;;5110748;27;20509;-71
2021/11/10 02:29:18;;;;;;;27.98;17.40;;;8.90;99.90;;;;;;5128879;27;20084;-71
2021/11/10 02:31:45;;;;;;;26.92;16.45;;;8.80;99.90;;;;;;5128653;27;20042;-72
2021/11/10 02:34:11;;;;;;;27.45;17.48;;;8.80;99.90;;;;;;5092686;27;20497;-72
2021/11/10 02:36:38;;;;;;;23.65;15.55;;;8.80;99.90;;;;;;5110338;27;20058;-72
2021/11/10 02:39:10;;;;;;;29.67;17.10;;;8.80;99.90;;;;;;5091810;27;20047;-72
2021/11/10 02:41:38;;;;;;;27.35;16.55;;;8.80;99.90;;;;;;5127717;27;20039;-72
2021/11/10 02:44:06;;;;;;;25.05;15.57;;;8.90;99.90;;;;;;5128728;27;20039;-71
2021/11/10 02:46:36;;;;;;;28.55;15.95;;;8.80;99.90;;;;;;5110058;27;20046;-72
2021/11/10 02:49:03;;;;;;;31.60;16.80;;;8.80;99.90;;;;;;5093081;27;20655;-72
2021/11/10 02:51:30;;;;;;;29.60;17.73;;;8.80;99.90;;;;;;5121596;27;20039;-72
2021/11/10 02:53:56;;;;;;;29.17;16.80;;;8.80;99.90;;;;;;5101705;27;20047;-72
2021/11/10 02:56:22;;;;;;;29.08;17.60;;;8.80;99.90;;;;;;5108380;27;20067;-71
2021/11/10 02:58:48;;;;;;;28.75;17.33;;;8.90;99.90;;;;;;5126552;27;20063;-71
2021/11/10 03:01:14;;;;;;;29.00;16.80;;;8.80;99.90;;;;;;5089743;27;20413;-71
2021/11/10 03:03:40;;;;;;;29.15;16.38;;;8.90;99.90;;;;;;5123791;27;20088;-71
2021/11/10 03:06:06;;;;;;;25.33;15.82;;;8.90;99.90;;;;;;5107262;27;20717;-72
2021/11/10 03:08:32;;;;;;;28.13;16.50;;;8.90;99.90;;;;;;5124824;27;20047;-72
2021/11/10 03:11:01;;;;;;;26.42;18.25;;;8.90;99.90;;;;;;5126774;27;20046;-71
2021/11/10 03:13:27;;;;;;;28.27;17.10;;;8.90;99.90;;;;;;5125700;27;20047;-71
2021/11/10 03:15:53;;;;;;;23.83;15.20;;;8.90;99.90;;;;;;5073801;27;20050;-71
2021/11/10 03:18:19;;;;;;;26.50;16.73;;;8.90;99.90;;;;;;5074325;27;20035;-72
2021/11/10 03:20:46;;;;;;;22.92;15.38;;;8.90;99.90;;;;;;5108272;28;20039;-72
2021/11/10 03:23:12;;;;;;;30.88;16.95;;;8.90;99.90;;;;;;5123493;27;20375;-71
2021/11/10 03:25:37;;;;;;;28.80;16.50;;;8.90;99.90;;;;;;5125820;27;20080;-71
2021/11/10 03:28:03;;;;;;;23.20;17.05;;;8.90;99.90;;;;;;5107905;27;20039;-72
2021/11/10 03:30:29;;;;;;;27.65;16.55;;;8.90;99.90;;;;;;5074156;27;20043;-72
2021/11/10 03:32:55;;;;;;;24.95;16.77;;;8.90;99.90;;;;;;5126839;28;20513;-71
2021/11/10 03:35:23;;;;;;;22.45;15.05;;;8.90;99.90;;;;;;5126758;28;20073;-71
2021/11/10 03:37:49;;;;;;;31.23;16.85;;;9.00;99.90;;;;;;5124872;28;20050;-71
2021/11/10 03:40:15;;;;;;;26.70;16.27;;;9.00;99.90;;;;;;5108085;28;20096;-71
2021/11/10 03:42:41;;;;;;;22.70;14.15;;;9.00;99.90;;;;;;5124150;28;20148;-72
2021/11/10 03:45:09;;;;;;;21.10;13.48;;;9.00;99.90;;;;;;5126449;28;20466;-72
2021/11/10 03:47:37;;;;;;;23.90;14.02;;;9.00;99.90;;;;;;5107987;28;20047;-72
2021/11/10 03:50:04;;;;;;;24.92;13.45;;;9.00;99.90;;;;;;5106370;28;20039;-72
2021/11/10 03:52:30;;;;;;;23.67;13.40;;;9.00;99.90;;;;;;5099044;28;20066;-72
2021/11/10 03:54:56;;;;;;;22.73;13.23;;;9.00;99.90;;;;;;5123936;28;20057;-72
2021/11/10 03:57:21;;;;;;;21.58;12.80;;;9.00;99.90;;;;;;5124096;28;20103;-72
2021/11/10 03:59:47;;;;;;;23.00;13.35;;;9.00;99.90;;;;;;5106675;28;20050;-72
2021/11/10 04:02:13;;;;;;;23.88;14.02;;;9.00;99.90;;;;;;5105929;28;20078;-72
2021/11/10 04:04:39;;;;;;;23.38;13.10;;;9.00;99.90;;;;;;5123621;28;20047;-72
2021/11/10 04:07:05;;;;;;;20.58;11.38;;;9.00;99.90;;;;;;5126269;28;20095;-72
2021/11/10 04:09:31;;;;;;;22.63;12.40;;;9.00;99.90;;;;;;5105972;28;20038;-72
2021/11/10 04:11:57;;;;;;;25.95;12.57;;;9.00;99.90;;;;;;5126346;28;20065;-72
2021/11/10 04:14:23;;;;;;;23.50;12.57;;;9.00;99.90;;;;;;5125282;28;20087;-72
2021/11/10 04:16:49;;;;;;;22.88;11.85;;;9.00;99.90;;;;;;5107551;28;20042;-72
2021/11/10 04:19:15;;;;;;;17.85;11.55;;;9.00;99.90;;;;;;5090045;28;20046;-73
2021/11/10 04:21:41;;;;;;;20.27;12.65;;;9.00;99.90;;;;;;5090731;28;20050;-72
2021/11/10 04:24:07;;;;;;;22.27;11.82;;;9.00;99.90;;;;;;5107876;27;20119;-72
2021/11/10 04:26:36;;;;;;;24.10;12.52;;;9.00;99.90;;;;;;5110985;27;20571;-72
2021/11/10 04:29:03;;;;;;;19.80;11.90;;;9.00;99.90;;;;;;5095092;27;20585;-73
2021/11/10 04:31:30;;;;;;;20.17;12.38;;;9.00;99.90;;;;;;5111198;27;20060;-73
2021/11/10 04:33:56;;;;;;;25.52;13.57;;;8.90;99.90;;;;;;5094786;27;20035;-72
2021/11/10 04:36:28;;;;;;;20.05;11.82;;;9.00;99.90;;;;;;5129542;27;20035;-72
2021/11/10 04:38:54;;;;;;;24.00;12.55;;;9.00;99.90;;;;;;5109735;27;20062;-72
2021/11/10 04:41:20;;;;;;;18.58;10.95;;;9.00;99.90;;;;;;5129627;27;20042;-73
2021/11/10 04:43:46;;;;;;;19.80;12.35;;;9.00;99.90;;;;;;5129470;27;20031;-72
2021/11/10 04:48:39;;;;;;;21.88;11.88;;;9.00;99.90;;;;;;5129377;27;20043;-72
2021/11/10 04:51:06;;;;;;;21.95;12.38;;;9.00;99.90;;;;;;5129759;27;20043;-72
2021/11/10 04:53:35;;;;;;;19.15;11.70;;;9.00;99.90;;;;;;5127802;27;20552;-72
2021/11/10 04:56:01;;;;;;;19.23;11.48;;;9.00;99.90;;;;;;5110974;27;20043;-72
2021/11/10 04:58:27;;;;;;;25.83;12.63;;;9.00;99.90;;;;;;5129128;27;20107;-72
2021/11/10 05:00:53;;;;;;;18.80;13.15;;;9.00;99.90;;;;;;5107119;27;20043;-72
2021/11/10 05:03:19;;;;;;;23.05;13.70;;;8.90;99.90;;;;;;5126371;27;20067;-72
2021/11/10 05:05:45;;;;;;;20.00;12.98;;;9.00;99.90;;;;;;5129659;27;20124;-72
2021/11/10 05:08:10;;;;;;;22.20;14.20;;;9.00;99.90;;;;;;5108059;28;20043;-72
2021/11/10 05:10:36;;;;;;;20.52;13.90;;;8.90;99.90;;;;;;5109736;28;20113;-72
2021/11/10 05:13:02;;;;;;;21.40;14.25;;;8.90;99.90;;;;;;5115069;27;20043;-72
2021/11/10 05:15:29;;;;;;;20.63;13.57;;;8.90;99.90;;;;;;5130683;27;20460;-72
2021/11/10 05:17:54;;;;;;;26.17;14.75;;;8.90;99.90;;;;;;5129474;27;20039;-72
2021/11/10 05:20:20;;;;;;;20.83;14.93;;;8.90;99.90;;;;;;5119825;27;20035;-72
2021/11/10 05:22:47;;;;;;;23.35;15.15;;;8.90;99.90;;;;;;5125268;27;20082;-72
2021/11/10 05:25:13;;;;;;;20.27;15.02;;;8.80;99.90;;;;;;5121407;27;20413;-72
2021/11/10 05:27:39;;;;;;;19.55;15.32;;;8.90;99.90;;;;;;5130187;27;20126;-72
2021/11/10 05:30:07;;;;;;;24.08;15.82;;;8.80;99.90;;;;;;5130545;27;20043;-72
2021/11/10 05:32:33;;;;;;;22.60;16.05;;;8.80;99.90;;;;;;5130658;27;20058;-72
2021/11/10 05:34:59;;;;;;;22.95;17.95;;;8.70;99.90;;;;;;5093519;27;20043;-72
2021/11/10 05:37:26;;;;;;;28.17;18.27;;;8.70;99.90;;;;;;5127758;27;20485;-72
2021/11/10 05:39:52;;;;;;;23.50;17.77;;;8.70;99.90;;;;;;5074224;28;20482;-71
2021/11/10 05:42:18;;;;;;;38.47;18.02;;;8.60;99.90;;;;;;5110048;28;20055;-72
2021/11/10 05:44:44;;;;;;;25.63;17.48;;;8.60;99.90;;;;;;5090686;28;20052;-72
2021/11/10 05:47:10;;;;;;;26.05;17.30;;;8.50;99.90;;;;;;5109194;28;20042;-72
2021/11/10 05:49:36;;;;;;;20.20;16.55;;;8.60;99.90;;;;;;5102078;27;20102;-72
2021/11/10 05:52:03;;;;;;;21.88;17.58;;;8.60;99.90;;;;;;5110362;27;20135;-71
2021/11/10 05:54:32;;;;;;;23.45;17.83;;;8.50;99.90;;;;;;5134746;27;20172;-72
2021/11/10 05:57:01;;;;;;;25.83;18.05;;;8.50;99.90;;;;;;5120447;27;20035;-72
2021/11/10 05:59:27;;;;;;;22.48;18.63;;;8.50;99.90;;;;;;5125319;27;20698;-72
2021/11/10 06:01:53;;;;;;;25.73;18.55;;;8.50;99.90;;;;;;5108151;27;20509;-72
2021/11/10 06:04:19;;;;;;;23.00;18.05;;;8.40;99.90;;;;;;5075194;27;20481;-72
2021/11/10 06:06:45;;;;;;;24.25;17.95;;;8.40;99.90;;;;;;5119386;27;20039;-72
2021/11/10 06:09:11;;;;;;;25.25;17.80;;;8.40;99.90;;;;;;5100281;27;20050;-72
2021/11/10 06:11:37;;;;;;;26.85;17.35;;;8.40;99.90;;;;;;5071412;27;20460;-72
2021/11/10 06:14:03;;;;;;;24.75;18.52;;;8.40;99.90;;;;;;5126418;27;20083;-71
2021/11/10 06:16:30;;;;;;;24.13;18.20;;;8.40;99.90;;;;;;5127223;27;20138;-71
2021/11/10 06:18:56;;;;;;;24.83;18.70;;;8.40;99.90;;;;;;5127163;27;20494;-72
2021/11/10 06:21:22;;;;;;;25.10;17.70;;;8.40;99.90;;;;;;5108824;27;20047;-71
2021/11/10 06:23:48;;;;;;;23.23;17.65;;;8.40;99.90;;;;;;5127308;27;20074;-72
2021/11/10 06:26:14;;;;;;;26.52;17.23;;;8.40;99.90;;;;;;5124801;27;20046;-72
2021/11/10 06:28:40;;;;;;;23.05;17.17;;;8.30;99.90;;;;;;5121944;27;21001;-72
2021/11/10 06:31:05;;;;;;;24.15;17.23;;;8.40;99.90;;;;;;5124486;27;20050;-72
2021/11/10 06:33:31;;;;;;;28.40;18.92;;;8.30;99.90;;;;;;5125407;27;20074;-72
2021/11/10 06:35:57;;;;;;;28.80;18.90;;;8.30;99.90;;;;;;5119476;27;20046;-72
2021/11/10 06:38:24;;;;;;;26.55;18.50;;;8.30;99.90;;;;;;5124667;27;20043;-72
2021/11/10 06:40:49;;;;;;;25.00;18.55;;;8.30;99.90;;;;;;5123108;27;20054;-73
2021/11/10 06:43:15;;;;;;;25.17;18.27;;;8.30;99.90;;;;;;5126918;27;20073;-72
2021/11/10 06:45:41;;;;;;;26.65;18.55;;;8.30;99.90;;;;;;5105387;27;20513;-73
2021/11/10 06:48:07;;;;;;;25.60;18.02;;;8.30;99.90;;;;;;5127562;27;20061;-73
2021/11/10 06:50:33;;;;;;;26.83;18.45;;;8.30;99.90;;;;;;5124367;27;20142;-72
2021/11/10 06:53:01;;;;;;;25.27;18.63;;;8.30;99.90;;;;;;5124153;27;20042;-73
2021/11/10 06:55:27;;;;;;;25.95;19.13;;;8.30;99.90;;;;;;5091287;27;20500;-73
2021/11/10 06:57:54;;;;;;;28.02;18.92;;;8.30;99.90;;;;;;5126437;27;20042;-73
2021/11/10 07:00:20;;;;;;;25.42;18.15;;;8.30;99.90;;;;;;5125442;27;20104;-73
2021/11/10 07:02:46;;;;;;;26.65;18.33;;;8.30;99.90;;;;;;5124186;27;20425;-73
2021/11/10 07:05:12;;;;;;;28.17;19.50;;;8.40;99.90;;;;;;5090819;27;20039;-72
2021/11/10 07:07:38;;;;;;;27.70;19.30;;;8.40;99.90;;;;;;5106394;27;20493;-72
2021/11/10 07:10:05;;;;;;;27.13;21.00;;;8.40;99.90;;;;;;5073643;27;20096;-72
2021/11/10 07:12:31;;;;;;;31.23;19.42;;;8.40;99.90;;;;;;5115068;27;20096;-72
2021/11/10 07:14:56;;;;;;;28.48;21.05;;;8.40;99.90;;;;;;5120885;27;20046;-72
2021/11/10 07:17:23;;;;;;;30.20;20.63;;;8.40;99.90;;;;;;5106561;27;20058;-71
2021/11/10 07:19:51;;;;;;;25.55;20.65;;;8.50;99.90;;;;;;5125079;27;20456;-72
2021/11/10 07:22:18;;;;;;;27.60;20.38;;;8.50;99.90;;;;;;5072452;27;20039;-72
2021/11/10 07:24:44;;;;;;;29.67;21.77;;;8.50;99.90;;;;;;5105866;27;20042;-72
2021/11/10 07:27:10;;;;;;;25.48;19.95;;;8.50;99.90;;;;;;5127130;27;20039;-71
2021/11/10 07:29:36;;;;;;;26.85;20.17;;;8.60;99.90;;;;;;5125078;27;20468;-72
2021/11/10 07:32:02;;;;;;;24.33;20.90;;;8.60;99.90;;;;;;5091562;28;20453;-72
2021/11/10 07:34:31;;;;;;;24.02;20.73;;;8.60;99.90;;;;;;5090743;28;20054;-72
2021/11/10 07:36:57;;;;;;;24.00;20.42;;;8.60;99.90;;;;;;5109344;28;20039;-72
2021/11/10 07:39:23;;;;;;;28.20;21.08;;;8.60;99.90;;;;;;5088798;28;20100;-72
2021/11/10 07:41:51;;;;;;;26.60;20.75;;;8.70;99.90;;;;;;5091179;28;20051;-72
2021/11/10 07:44:17;;;;;;;28.33;20.75;;;8.70;99.90;;;;;;5127397;28;20327;-72
2021/11/10 07:47:04;;;;;;;27.92;20.50;;;8.80;99.90;;;;;;5125927;28;20043;-72
2021/11/10 07:49:30;;;;;;;25.63;19.85;;;8.80;99.90;;;;;;5126169;28;20082;-72
2021/11/10 07:51:56;;;;;;;27.13;20.23;;;8.90;99.90;;;;;;5126203;28;20430;-72
2021/11/10 07:54:22;;;;;;;26.50;19.88;;;8.90;99.90;;;;;;5124866;28;20043;-72
2021/11/10 07:56:47;;;;;;;24.90;19.33;;;9.00;99.90;;;;;;5105762;28;20322;-72
2021/11/10 07:59:13;;;;;;;26.42;20.25;;;9.00;99.90;;;;;;5125753;27;20043;-72
2021/11/10 08:01:39;;;;;;;30.25;20.02;;;9.00;99.90;;;;;;5110936;27;20066;-72
2021/11/10 08:04:05;;;;;;;27.42;18.75;;;9.00;99.90;;;;;;5076901;27;20099;-72
2021/11/10 08:06:34;;;;;;;22.73;18.63;;;9.00;99.90;;;;;;5111639;27;20058;-72
2021/11/10 08:09:00;;;;;;;29.73;20.25;;;9.10;99.90;;;;;;5128627;27;20035;-72
2021/11/10 08:11:26;;;;;;;28.60;19.70;;;9.10;99.90;;;;;;5111975;27;20223;-72
2021/11/10 08:13:52;;;;;;;28.30;19.63;;;9.10;99.90;;;;;;5106292;27;20047;-72
2021/11/10 08:16:18;;;;;;;26.25;19.02;;;9.10;99.90;;;;;;5092773;27;20035;-72
2021/11/10 08:18:44;;;;;;;28.05;19.30;;;9.20;99.90;;;;;;5129315;27;20035;-72
2021/11/10 08:21:11;;;;;;;24.60;17.77;;;9.20;99.90;;;;;;5130160;27;20039;-72
2021/11/10 08:23:37;;;;;;;26.52;19.08;;;9.20;99.90;;;;;;5107868;27;20513;-72
2021/11/10 08:26:03;;;;;;;29.90;19.02;;;9.20;99.90;;;;;;5129305;27;20049;-73
2021/11/10 08:28:30;;;;;;;25.17;17.70;;;9.30;99.90;;;;;;5128988;27;20148;-73
2021/11/10 08:30:56;;;;;;;23.67;17.17;;;9.30;99.90;;;;;;5125653;27;20049;-72
2021/11/10 08:33:22;;;;;;;28.17;18.33;;;9.40;99.90;;;;;;5091854;27;20502;-72
2021/11/10 08:35:49;;;;;;;26.70;18.48;;;9.30;99.90;;;;;;5107191;27;20448;-73
2021/11/10 08:38:18;;;;;;;26.90;17.90;;;9.40;99.90;;;;;;5090312;27;20050;-73
2021/11/10 08:40:45;;;;;;;28.05;18.25;;;9.40;99.90;;;;;;5125926;27;20489;-72
2021/11/10 08:43:12;;;;;;;23.73;17.35;;;9.50;99.90;;;;;;5126390;27;20127;-72
2021/11/10 08:45:40;;;;;;;24.63;17.00;;;9.50;99.90;;;;;;5126632;27;20483;-72
2021/11/10 08:48:06;;;;;;;23.73;16.70;;;9.50;99.90;;;;;;5126738;27;20425;-72
2021/11/10 08:50:41;;;;;;;25.05;16.80;;;9.60;99.90;;;;;;5126404;27;20466;-72
2021/11/10 08:53:07;;;;;;;25.05;17.90;;;9.60;99.90;;;;;;5106524;27;20304;-73
2021/11/10 08:55:33;;;;;;;24.13;15.77;;;9.60;99.90;;;;;;5073954;27;20131;-72
2021/11/10 08:57:59;;;;;;;26.73;17.73;;;9.60;99.90;;;;;;5125776;27;20088;-72
2021/11/10 09:00:30;;;;;;;22.35;16.83;;;9.70;99.90;;;;;;5126270;27;20055;-72
2021/11/10 09:02:55;;;;;;;;;;;9.70;99.90;;;;;;5107928;27;20438;-72
2021/11/10 09:05:22;;;;;;;24.80;16.75;;;9.70;99.90;;;;;;5123399;27;20115;-72
2021/11/10 09:07:48;;;;;;;29.05;17.15;;;9.70;99.90;;;;;;5072610;27;20098;-72
2021/11/10 09:10:16;;;;;;;25.05;16.80;;;9.70;99.90;;;;;;5107765;27;20039;-72
2021/11/10 09:12:42;;;;;;;25.15;17.45;;;9.70;99.90;;;;;;5124722;27;20039;-72
2021/11/10 09:15:11;;;;;;;28.15;16.85;;;9.80;99.90;;;;;;5127091;27;20291;-72
2021/11/10 09:17:40;;;;;;;26.33;16.65;;;9.70;99.90;;;;;;5090648;27;20474;-74
2021/11/10 09:20:14;;;;;;;27.90;17.23;;;9.70;99.90;;;;;;5126367;27;20074;-73
2021/11/10 09:22:41;;;;;;;27.73;16.33;;;9.70;99.90;;;;;;5090198;27;20047;-74
2021/11/10 09:25:09;;;;;;;27.67;16.40;;;9.70;99.90;;;;;;5126392;27;20118;-74
2021/11/10 09:27:36;;;;;;;27.35;16.58;;;9.70;99.90;;;;;;5126275;27;20051;-74
2021/11/10 09:30:04;;;;;;;25.40;16.38;;;9.70;99.90;;;;;;5126270;27;20107;-74
2021/11/10 09:32:31;;;;;;;28.45;16.80;;;9.70;99.90;;;;;;5090688;27;20051;-74
2021/11/10 09:34:57;;;;;;;26.17;16.02;;;9.70;99.90;;;;;;5125589;27;20035;-74
2021/11/10 09:37:23;;;;;;;27.08;16.50;;;9.70;99.90;;;;;;5124078;27;20130;-74
2021/11/10 09:39:49;;;;;;;24.48;15.88;;;9.70;99.90;;;;;;5106374;27;20052;-74
2021/11/10 09:42:15;;;;;;;30.02;16.75;;;9.70;99.90;;;;;;5125960;27;20086;-72
2021/11/10 09:44:45;;;;;;;25.27;16.50;;;9.70;99.90;;;;;;5125111;27;20493;-72
2021/11/10 09:47:11;;;;;;;25.80;15.45;;;9.70;99.90;;;;;;5125658;27;20039;-72
2021/11/10 09:49:37;;;;;;;27.15;15.73;;;9.80;99.90;;;;;;5106929;27;20104;-73
2021/11/10 09:52:03;;;;;;;27.10;16.10;;;9.80;99.90;;;;;;5071409;27;20143;-72
2021/11/10 09:54:29;;;;;;;28.35;15.75;;;9.90;99.90;;;;;;5105831;27;20047;-72
2021/11/10 09:56:55;;;;;;;29.08;16.55;;;9.90;99.90;;;;;;5072739;27;20194;-72
2021/11/10 09:59:21;;;;;;;26.85;15.18;;;9.90;99.90;;;;;;5089596;27;20047;-72
2021/11/10 10:01:48;;;;;;;24.60;14.77;;;10.00;99.90;;;;;;5122652;27;20051;-72
2021/11/10 10:04:14;;;;;;;22.17;14.38;;;10.00;99.90;;;;;;5105123;27;20042;-72
2021/11/10 10:06:41;;;;;;;30.33;15.13;;;10.00;99.90;;;;;;5124742;27;20043;-72
2021/11/10 10:09:07;;;;;;;26.33;15.05;;;10.00;99.90;;;;;;5120805;27;20497;-72
2021/11/10 10:11:34;;;;;;;28.20;15.02;;;10.00;99.90;;;;;;5125013;27;20047;-71
2021/11/10 10:14:00;;;;;;;28.42;14.73;;;10.10;99.90;;;;;;5124478;27;20039;-72
2021/11/10 10:16:28;;;;;;;23.80;14.13;;;10.10;99.90;;;;;;5105472;27;20039;-72
2021/11/10 10:19:08;;;;;;;23.85;13.68;;;10.00;99.90;;;;;;5106035;27;20043;-72
2021/11/10 10:21:35;;;;;;;26.48;14.98;;;10.00;99.90;;;;;;5123684;27;20096;-72
2021/11/10 10:24:02;;;;;;;27.10;15.77;;;10.00;99.90;;;;;;5104445;27;20035;-72
2021/11/10 10:26:31;;;;;;;26.55;14.60;;;10.00;99.90;;;;;;5089334;27;20053;-72
2021/11/10 10:29:05;;;;;;;24.70;14.03;;;10.00;99.90;;;;;;5123947;27;20087;-73
2021/11/10 10:31:31;;;;;;;25.33;14.18;;;10.00;99.90;;;;;;5123836;27;20070;-72
2021/11/10 10:34:02;;;;;;;25.17;14.02;;;10.00;99.90;;;;;;5123708;27;20482;-72
2021/11/10 10:36:34;;;;;;;24.45;13.68;;;10.00;99.90;;;;;;5125122;27;20046;-73
2021/11/10 10:39:08;;;;;;;24.27;13.02;;;10.00;99.90;;;;;;5121743;27;20050;-72
2021/11/10 10:41:35;;;;;;;23.85;13.93;;;10.00;99.90;;;;;;5124146;27;21587;-72
2021/11/10 10:44:34;;;;;;;21.05;13.48;;;9.90;99.90;;;;;;5123883;27;20058;-72
2021/11/10 10:47:03;;;;;;;28.77;13.73;;;9.90;99.90;;;;;;5084056;28;20238;-72
2021/11/10 10:49:38;;;;;;;25.20;14.32;;;9.90;99.90;;;;;;5123859;27;20051;-72
2021/11/10 10:52:10;;;;;;;22.77;13.75;;;10.00;99.90;;;;;;5087395;27;20058;-73
2021/11/10 10:54:38;;;;;;;27.10;14.23;;;9.90;99.90;;;;;;5122578;27;20042;-72
2021/11/10 10:57:04;;;;;;;25.98;14.18;;;9.90;99.90;;;;;;5105577;27;20513;-72
2021/11/10 10:59:31;;;;;;;29.58;14.68;;;9.90;99.90;;;;;;5123667;27;20238;-72
2021/11/10 11:02:03;;;;;;;28.35;13.90;;;9.90;99.90;;;;;;5123886;27;20103;-72
2021/11/10 11:04:33;;;;;;;23.23;14.20;;;9.90;99.90;;;;;;5121378;27;20163;-72
2021/11/10 11:07:05;;;;;;;23.48;13.63;;;9.90;99.90;;;;;;5123629;27;20039;-72
2021/11/10 11:09:49;;;;;;;30.20;14.93;;;9.90;99.90;;;;;;5122390;27;20043;-72
2021/11/10 11:15:14;;;;;;;27.65;14.45;;;10.00;99.90;;;;;;5122721;27;20043;-73
2021/11/10 11:17:47;;;;;;;26.30;13.68;;;10.00;99.90;;;;;;5121978;27;20035;-72
2021/11/10 11:20:22;;;;;;;25.98;14.57;;;10.00;99.90;;;;;;5087561;27;20720;-72
2021/11/10 11:22:56;;;;;;;27.27;13.40;;;9.90;99.90;;;;;;5101839;27;20146;-72
2021/11/10 11:25:34;;;;;;;24.17;13.13;;;10.00;99.90;;;;;;5087750;27;20039;-72
2021/11/10 11:28:04;;;;;;;25.70;14.20;;;10.00;99.90;;;;;;5123211;27;20072;-72
2021/11/10 11:30:37;;;;;;;;;;;10.00;99.90;;;;;;5124148;27;20095;-72
2021/11/10 11:33:08;;;;;;;23.40;13.77;;;9.90;99.90;;;;;;5123117;27;19964;-72
2021/11/10 11:35:45;;;;;;;26.58;14.13;;;9.90;99.90;;;;;;5104003;28;20054;-72
2021/11/10 11:38:17;;;;;;;27.42;14.25;;;9.90;99.90;;;;;;5086282;28;20517;-72
2021/11/10 11:40:46;;;;;;;25.40;14.75;;;9.90;99.90;;;;;;5087136;28;20254;-72
2021/11/10 11:43:14;;;;;;;29.83;14.90;;;9.90;99.90;;;;;;5105152;28;20134;-72
2021/11/10 11:45:47;;;;;;;32.83;15.50;;;9.90;99.90;;;;;;5122727;28;20214;-73
2021/11/10 11:48:15;;;;;;;24.13;14.30;;;9.90;99.90;;;;;;5104974;28;20047;-72
2021/11/10 11:50:42;;;;;;;29.85;14.20;;;9.90;99.90;;;;;;5122420;28;20071;-72
2021/11/10 11:53:09;;;;;;;25.42;14.57;;;9.90;99.90;;;;;;5103223;28;20062;-72
2021/11/10 11:55:46;;;;;;;25.63;14.48;;;10.00;99.90;;;;;;5123160;28;20086;-72
2021/11/10 11:58:22;;;;;;;25.30;13.45;;;9.90;99.90;;;;;;5087592;28;20062;-72
2021/11/10 12:00:55;;;;;;;23.50;13.98;;;10.00;99.90;;;;;;5122141;28;20066;-72
2021/11/10 12:03:31;;;;;;;22.25;12.85;;;9.90;99.90;;;;;;5104383;28;20062;-71
2021/11/10 12:06:02;;;;;;;25.63;13.20;;;9.90;99.90;;;;;;5122495;28;20482;-72
2021/11/10 12:08:38;;;;;;;30.30;14.48;;;10.00;99.90;;;;;;5098560;28;20086;-72
2021/11/10 12:11:20;;;;;;;23.38;14.45;;;10.00;99.90;;;;;;5122858;28;20043;-72
2021/11/10 12:14:04;;;;;;;24.02;14.73;;;10.00;99.90;;;;;;5122374;28;20095;-73
2021/11/10 12:16:57;;;;;;;27.13;13.82;;;10.00;99.90;;;;;;5103118;28;20104;-71
2021/11/10 12:19:28;;;;;;;26.13;14.07;;;10.00;99.90;;;;;;5122497;28;20300;-72
2021/11/10 12:22:14;;;;;;;27.55;14.85;;;10.00;99.90;;;;;;5102578;28;20132;-72
2021/11/10 12:24:53;;;;;;;24.83;13.70;;;10.00;99.90;;;;;;5102632;28;20235;-72
2021/11/10 12:27:20;;;;;;;21.67;12.50;;;10.00;99.90;;;;;;5121903;28;20035;-72
2021/11/10 12:29:52;;;;;;;26.38;13.90;;;10.00;99.90;;;;;;5122896;28;20039;-72
2021/11/10 12:32:21;;;;;;;26.92;13.90;;;10.00;99.90;;;;;;5104453;28;20058;-72
2021/11/10 12:34:50;;;;;;;21.60;13.38;;;10.10;99.90;;;;;;5086888;28;20043;-72
2021/11/10 12:37:23;;;;;;;27.90;14.18;;;10.10;99.90;;;;;;5121965;28;20513;-73
2021/11/10 12:39:49;;;;;;;21.63;12.90;;;10.10;99.90;;;;;;5121212;28;20568;-74
2021/11/10 12:42:17;;;;;;;22.73;12.63;;;10.10;99.90;;;;;;5104295;28;20071;-73